weather.gov     
National Weather Service

Terminal Aerodrome Forecast
NWS Homepage
This page is being discontinued on March 12, 2014.
The same data is available at this site. Please update your bookmarks.
Thank you, and we apologize for the inconvenience.
Please send an email to SR-SRH.Webmaster@noaa.gov with any concerns.


Current Version
Previous Version:    01  02  03  04  05  06  07  08  09  10  11  12  13  14  15  16  17  18  19  20  21  22  23  24  25  26  27  
[Printable]
944
FTUS44 KOUN 290520
TAFSPS
TAF
KSPS 290520Z 2906/3006 12014KT P6SM VCTS BKN070CB
      TEMPO 2906/2908 5SM -TSRA BKN040CB
     FM291100 15012KT P6SM BKN120
     FM291600 19011KT P6SM SCT060
      TEMPO 2922/3002 2SM +TSRA BR OVC030CB
     FM300200 16012KT 6SM -RA BR OVC080
      TEMPO 3002/3006 2SM +TSRA BR OVC020CB=




944
FTUS44 KOUN 290520
TAFSPS
TAF
KSPS 290520Z 2906/3006 12014KT P6SM VCTS BKN070CB
      TEMPO 2906/2908 5SM -TSRA BKN040CB
     FM291100 15012KT P6SM BKN120
     FM291600 19011KT P6SM SCT060
      TEMPO 2922/3002 2SM +TSRA BR OVC030CB
     FM300200 16012KT 6SM -RA BR OVC080
      TEMPO 3002/3006 2SM +TSRA BR OVC020CB=


U.S. Dept. of Commerce
NOAA National Weather Service
1325 East West Highway
Silver Spring, MD 20910
E-mail: w-nws.webmaster@noaa.gov
Page last modified: May 16, 2007
NATIONAL WEATHER SERVICE: for Safety, for Work, for Fun - FOR LIFE